sensor_id;sensor_type;location;lat;lon;timestamp;P1;durP1;ratioP1;P2;durP2;ratioP2
12385;SDS011;6257;57.634;18.310;2023-03-19T00:00:09;120.70;;;24.77;;
12385;SDS011;6257;57.634;18.310;2023-03-19T00:02:37;123.20;;;28.87;;
12385;SDS011;6257;57.634;18.310;2023-03-19T00:05:05;147.47;;;25.27;;
12385;SDS011;6257;57.634;18.310;2023-03-19T00:07:32;216.30;;;26.93;;
12385;SDS011;6257;57.634;18.310;2023-03-19T00:09:59;116.20;;;24.57;;
12385;SDS011;6257;57.634;18.310;2023-03-19T00:12:26;123.67;;;23.87;;
12385;SDS011;6257;57.634;18.310;2023-03-19T00:14:55;153.87;;;33.63;;
12385;SDS011;6257;57.634;18.310;2023-03-19T00:17:22;172.97;;;28.30;;
12385;SDS011;6257;57.634;18.310;2023-03-19T00:19:49;161.93;;;28.17;;
12385;SDS011;6257;57.634;18.310;2023-03-19T00:22:16;174.17;;;33.57;;
12385;SDS011;6257;57.634;18.310;2023-03-19T00:24:43;160.20;;;29.60;;
12385;SDS011;6257;57.634;18.310;2023-03-19T00:27:10;150.83;;;29.93;;
12385;SDS011;6257;57.634;18.310;2023-03-19T00:29:37;125.30;;;28.37;;
12385;SDS011;6257;57.634;18.310;2023-03-19T00:32:06;180.27;;;23.93;;
12385;SDS011;6257;57.634;18.310;2023-03-19T00:34:33;139.27;;;26.70;;
12385;SDS011;6257;57.634;18.310;2023-03-19T00:37:00;194.83;;;29.13;;
12385;SDS011;6257;57.634;18.310;2023-03-19T00:39:28;194.87;;;29.13;;
12385;SDS011;6257;57.634;18.310;2023-03-19T00:41:55;136.10;;;31.13;;
12385;SDS011;6257;57.634;18.310;2023-03-19T00:44:22;181.47;;;35.03;;
12385;SDS011;6257;57.634;18.310;2023-03-19T00:46:49;198.70;;;34.70;;
12385;SDS011;6257;57.634;18.310;2023-03-19T00:49:17;145.57;;;27.30;;
12385;SDS011;6257;57.634;18.310;2023-03-19T00:51:44;192.60;;;34.20;;
12385;SDS011;6257;57.634;18.310;2023-03-19T00:54:12;230.37;;;34.80;;
12385;SDS011;6257;57.634;18.310;2023-03-19T00:56:39;204.93;;;33.90;;
12385;SDS011;6257;57.634;18.310;2023-03-19T00:59:06;162.87;;;27.07;;
12385;SDS011;6257;57.634;18.310;2023-03-19T01:01:33;142.23;;;26.00;;
12385;SDS011;6257;57.634;18.310;2023-03-19T01:04:00;184.20;;;31.47;;
12385;SDS011;6257;57.634;18.310;2023-03-19T01:06:29;153.33;;;28.53;;
12385;SDS011;6257;57.634;18.310;2023-03-19T01:08:56;195.13;;;35.40;;
12385;SDS011;6257;57.634;18.310;2023-03-19T01:11:23;210.27;;;31.00;;
12385;SDS011;6257;57.634;18.310;2023-03-19T01:13:50;211.97;;;33.40;;
12385;SDS011;6257;57.634;18.310;2023-03-19T01:16:17;207.60;;;28.97;;
12385;SDS011;6257;57.634;18.310;2023-03-19T01:18:44;184.53;;;33.07;;
12385;SDS011;6257;57.634;18.310;2023-03-19T01:21:11;173.20;;;30.23;;
12385;SDS011;6257;57.634;18.310;2023-03-19T01:23:40;221.40;;;30.77;;
12385;SDS011;6257;57.634;18.310;2023-03-19T01:26:07;194.67;;;32.17;;
12385;SDS011;6257;57.634;18.310;2023-03-19T01:28:34;175.67;;;28.50;;
12385;SDS011;6257;57.634;18.310;2023-03-19T01:31:04;149.13;;;28.00;;
12385;SDS011;6257;57.634;18.310;2023-03-19T01:33:32;141.43;;;28.67;;
12385;SDS011;6257;57.634;18.310;2023-03-19T01:35:59;252.33;;;35.20;;
12385;SDS011;6257;57.634;18.310;2023-03-19T01:38:28;171.80;;;29.53;;
12385;SDS011;6257;57.634;18.310;2023-03-19T01:40:56;122.10;;;27.23;;
12385;SDS011;6257;57.634;18.310;2023-03-19T01:43:24;184.13;;;30.37;;
12385;SDS011;6257;57.634;18.310;2023-03-19T01:45:54;126.73;;;26.77;;
12385;SDS011;6257;57.634;18.310;2023-03-19T01:48:25;192.57;;;29.63;;
12385;SDS011;6257;57.634;18.310;2023-03-19T01:50:56;117.90;;;26.40;;
12385;SDS011;6257;57.634;18.310;2023-03-19T01:53:25;179.20;;;30.13;;
12385;SDS011;6257;57.634;18.310;2023-03-19T01:55:58;216.33;;;30.60;;
12385;SDS011;6257;57.634;18.310;2023-03-19T01:58:29;157.30;;;27.80;;
12385;SDS011;6257;57.634;18.310;2023-03-19T02:00:56;234.93;;;32.87;;
12385;SDS011;6257;57.634;18.310;2023-03-19T02:03:24;130.53;;;26.37;;
12385;SDS011;6257;57.634;18.310;2023-03-19T02:05:51;163.97;;;30.90;;
12385;SDS011;6257;57.634;18.310;2023-03-19T02:08:20;116.47;;;26.50;;
12385;SDS011;6257;57.634;18.310;2023-03-19T02:10:50;134.37;;;25.33;;
12385;SDS011;6257;57.634;18.310;2023-03-19T02:13:21;114.27;;;25.03;;
12385;SDS011;6257;57.634;18.310;2023-03-19T02:15:49;115.60;;;25.17;;
12385;SDS011;6257;57.634;18.310;2023-03-19T02:18:16;140.73;;;26.73;;
12385;SDS011;6257;57.634;18.310;2023-03-19T02:20:45;165.13;;;28.10;;
12385;SDS011;6257;57.634;18.310;2023-03-19T02:23:19;157.20;;;28.27;;
12385;SDS011;6257;57.634;18.310;2023-03-19T02:26:12;159.00;;;27.70;;
12385;SDS011;6257;57.634;18.310;2023-03-19T02:28:41;94.97;;;24.37;;
12385;SDS011;6257;57.634;18.310;2023-03-19T02:31:09;145.67;;;28.17;;
12385;SDS011;6257;57.634;18.310;2023-03-19T02:33:38;162.77;;;28.47;;
12385;SDS011;6257;57.634;18.310;2023-03-19T02:36:07;219.77;;;31.13;;
12385;SDS011;6257;57.634;18.310;2023-03-19T02:38:37;178.23;;;29.60;;
12385;SDS011;6257;57.634;18.310;2023-03-19T02:41:07;194.53;;;30.40;;
12385;SDS011;6257;57.634;18.310;2023-03-19T02:43:35;270.10;;;33.50;;
12385;SDS011;6257;57.634;18.310;2023-03-19T02:46:05;216.30;;;31.93;;
12385;SDS011;6257;57.634;18.310;2023-03-19T02:48:33;172.87;;;27.13;;
12385;SDS011;6257;57.634;18.310;2023-03-19T02:51:01;165.80;;;29.20;;
12385;SDS011;6257;57.634;18.310;2023-03-19T02:53:28;132.07;;;26.57;;
12385;SDS011;6257;57.634;18.310;2023-03-19T02:55:55;220.43;;;30.13;;
12385;SDS011;6257;57.634;18.310;2023-03-19T02:58:24;172.10;;;28.93;;
12385;SDS011;6257;57.634;18.310;2023-03-19T03:00:51;218.40;;;29.63;;
12385;SDS011;6257;57.634;18.310;2023-03-19T03:03:18;235.83;;;31.77;;
12385;SDS011;6257;57.634;18.310;2023-03-19T03:05:45;339.63;;;36.83;;
12385;SDS011;6257;57.634;18.310;2023-03-19T03:08:12;246.80;;;32.17;;
12385;SDS011;6257;57.634;18.310;2023-03-19T03:10:39;373.40;;;39.53;;
12385;SDS011;6257;57.634;18.310;2023-03-19T03:13:07;200.33;;;29.20;;
12385;SDS011;6257;57.634;18.310;2023-03-19T03:15:35;289.97;;;37.10;;
12385;SDS011;6257;57.634;18.310;2023-03-19T03:18:02;266.60;;;32.00;;
12385;SDS011;6257;57.634;18.310;2023-03-19T03:20:30;225.30;;;29.37;;
12385;SDS011;6257;57.634;18.310;2023-03-19T03:22:57;238.83;;;31.37;;
12385;SDS011;6257;57.634;18.310;2023-03-19T03:25:25;402.10;;;44.70;;
12385;SDS011;6257;57.634;18.310;2023-03-19T03:27:53;327.70;;;35.63;;
12385;SDS011;6257;57.634;18.310;2023-03-19T03:30:20;317.53;;;39.70;;
12385;SDS011;6257;57.634;18.310;2023-03-19T03:32:49;180.43;;;32.83;;
12385;SDS011;6257;57.634;18.310;2023-03-19T03:35:16;218.20;;;27.03;;
12385;SDS011;6257;57.634;18.310;2023-03-19T03:37:46;342.57;;;39.20;;
12385;SDS011;6257;57.634;18.310;2023-03-19T03:40:14;343.63;;;34.03;;
12385;SDS011;6257;57.634;18.310;2023-03-19T03:42:41;282.97;;;30.80;;
12385;SDS011;6257;57.634;18.310;2023-03-19T03:45:09;304.50;;;34.43;;
12385;SDS011;6257;57.634;18.310;2023-03-19T03:47:37;355.73;;;35.50;;
12385;SDS011;6257;57.634;18.310;2023-03-19T03:50:07;192.33;;;28.23;;
12385;SDS011;6257;57.634;18.310;2023-03-19T03:52:36;218.17;;;32.43;;
12385;SDS011;6257;57.634;18.310;2023-03-19T03:55:05;243.53;;;31.93;;
12385;SDS011;6257;57.634;18.310;2023-03-19T03:57:33;340.70;;;35.23;;
12385;SDS011;6257;57.634;18.310;2023-03-19T04:00:00;374.50;;;39.03;;
12385;SDS011;6257;57.634;18.310;2023-03-19T04:02:27;382.03;;;41.53;;
12385;SDS011;6257;57.634;18.310;2023-03-19T04:04:54;209.47;;;27.30;;
12385;SDS011;6257;57.634;18.310;2023-03-19T04:07:23;283.90;;;33.73;;
12385;SDS011;6257;57.634;18.310;2023-03-19T04:09:51;260.87;;;28.93;;
12385;SDS011;6257;57.634;18.310;2023-03-19T04:12:18;325.63;;;35.13;;
12385;SDS011;6257;57.634;18.310;2023-03-19T04:14:45;215.10;;;28.40;;
12385;SDS011;6257;57.634;18.310;2023-03-19T04:17:13;305.87;;;33.50;;
12385;SDS011;6257;57.634;18.310;2023-03-19T04:19:40;347.47;;;36.80;;
12385;SDS011;6257;57.634;18.310;2023-03-19T04:22:08;251.90;;;31.47;;
12385;SDS011;6257;57.634;18.310;2023-03-19T04:24:36;360.27;;;36.20;;
12385;SDS011;6257;57.634;18.310;2023-03-19T04:27:03;366.43;;;39.07;;
12385;SDS011;6257;57.634;18.310;2023-03-19T04:29:32;372.50;;;39.73;;
12385;SDS011;6257;57.634;18.310;2023-03-19T04:31:59;279.03;;;34.97;;
12385;SDS011;6257;57.634;18.310;2023-03-19T04:34:26;303.87;;;35.97;;
12385;SDS011;6257;57.634;18.310;2023-03-19T04:36:53;284.03;;;30.17;;
12385;SDS011;6257;57.634;18.310;2023-03-19T04:39:20;278.27;;;30.50;;
12385;SDS011;6257;57.634;18.310;2023-03-19T04:41:49;262.80;;;28.47;;
12385;SDS011;6257;57.634;18.310;2023-03-19T04:44:17;289.53;;;31.53;;
12385;SDS011;6257;57.634;18.310;2023-03-19T04:46:44;289.17;;;30.80;;
12385;SDS011;6257;57.634;18.310;2023-03-19T04:49:11;334.03;;;34.20;;
12385;SDS011;6257;57.634;18.310;2023-03-19T04:51:39;241.20;;;28.40;;
12385;SDS011;6257;57.634;18.310;2023-03-19T04:54:07;366.37;;;34.83;;
12385;SDS011;6257;57.634;18.310;2023-03-19T04:56:35;362.40;;;36.10;;
12385;SDS011;6257;57.634;18.310;2023-03-19T04:59:04;292.63;;;31.07;;
12385;SDS011;6257;57.634;18.310;2023-03-19T05:01:31;321.17;;;35.53;;
12385;SDS011;6257;57.634;18.310;2023-03-19T05:03:58;265.33;;;33.10;;
12385;SDS011;6257;57.634;18.310;2023-03-19T05:06:26;224.93;;;30.17;;
12385;SDS011;6257;57.634;18.310;2023-03-19T05:08:53;196.50;;;28.17;;
12385;SDS011;6257;57.634;18.310;2023-03-19T05:11:20;152.47;;;27.07;;
12385;SDS011;6257;57.634;18.310;2023-03-19T05:13:47;159.83;;;21.33;;
12385;SDS011;6257;57.634;18.310;2023-03-19T05:16:16;243.43;;;28.77;;
12385;SDS011;6257;57.634;18.310;2023-03-19T05:18:43;216.00;;;25.83;;
12385;SDS011;6257;57.634;18.310;2023-03-19T05:21:10;138.90;;;23.50;;
12385;SDS011;6257;57.634;18.310;2023-03-19T05:23:38;130.67;;;24.40;;
12385;SDS011;6257;57.634;18.310;2023-03-19T05:26:05;92.43;;;22.27;;
12385;SDS011;6257;57.634;18.310;2023-03-19T05:28:32;70.63;;;18.20;;
12385;SDS011;6257;57.634;18.310;2023-03-19T05:30:59;142.67;;;21.40;;
12385;SDS011;6257;57.634;18.310;2023-03-19T05:33:30;112.80;;;19.60;;
12385;SDS011;6257;57.634;18.310;2023-03-19T05:35:57;128.63;;;20.63;;
12385;SDS011;6257;57.634;18.310;2023-03-19T05:38:25;79.63;;;18.07;;
12385;SDS011;6257;57.634;18.310;2023-03-19T05:40:52;62.87;;;15.87;;
12385;SDS011;6257;57.634;18.310;2023-03-19T05:43:19;58.27;;;15.90;;
12385;SDS011;6257;57.634;18.310;2023-03-19T05:45:48;40.67;;;15.40;;
12385;SDS011;6257;57.634;18.310;2023-03-19T05:48:16;42.13;;;14.93;;
12385;SDS011;6257;57.634;18.310;2023-03-19T05:50:45;34.70;;;14.40;;
12385;SDS011;6257;57.634;18.310;2023-03-19T05:53:13;33.80;;;13.50;;
12385;SDS011;6257;57.634;18.310;2023-03-19T05:55:40;49.43;;;15.57;;
12385;SDS011;6257;57.634;18.310;2023-03-19T05:58:08;35.03;;;14.40;;
12385;SDS011;6257;57.634;18.310;2023-03-19T06:00:35;38.30;;;14.27;;
12385;SDS011;6257;57.634;18.310;2023-03-19T06:03:03;35.33;;;14.00;;
12385;SDS011;6257;57.634;18.310;2023-03-19T06:05:30;30.00;;;13.63;;
12385;SDS011;6257;57.634;18.310;2023-03-19T06:07:58;41.30;;;14.20;;
12385;SDS011;6257;57.634;18.310;2023-03-19T06:10:25;47.97;;;21.33;;
12385;SDS011;6257;57.634;18.310;2023-03-19T06:12:53;56.10;;;16.80;;
12385;SDS011;6257;57.634;18.310;2023-03-19T06:15:20;62.43;;;16.07;;
12385;SDS011;6257;57.634;18.310;2023-03-19T06:17:47;74.17;;;17.87;;
12385;SDS011;6257;57.634;18.310;2023-03-19T06:20:14;62.10;;;17.97;;
12385;SDS011;6257;57.634;18.310;2023-03-19T06:22:41;68.13;;;18.03;;
12385;SDS011;6257;57.634;18.310;2023-03-19T06:25:10;38.00;;;15.33;;
12385;SDS011;6257;57.634;18.310;2023-03-19T06:27:37;46.63;;;16.63;;
12385;SDS011;6257;57.634;18.310;2023-03-19T06:30:05;39.93;;;15.47;;
12385;SDS011;6257;57.634;18.310;2023-03-19T06:32:33;29.43;;;13.77;;
12385;SDS011;6257;57.634;18.310;2023-03-19T06:35:01;29.63;;;14.13;;
12385;SDS011;6257;57.634;18.310;2023-03-19T06:37:28;29.50;;;14.30;;
12385;SDS011;6257;57.634;18.310;2023-03-19T06:39:55;26.33;;;13.70;;
12385;SDS011;6257;57.634;18.310;2023-03-19T06:42:24;26.93;;;13.40;;
12385;SDS011;6257;57.634;18.310;2023-03-19T06:44:51;27.50;;;13.47;;
12385;SDS011;6257;57.634;18.310;2023-03-19T06:47:18;26.77;;;13.13;;
12385;SDS011;6257;57.634;18.310;2023-03-19T06:49:45;26.90;;;13.00;;
12385;SDS011;6257;57.634;18.310;2023-03-19T06:52:13;23.87;;;11.93;;
12385;SDS011;6257;57.634;18.310;2023-03-19T06:54:40;22.30;;;11.77;;
12385;SDS011;6257;57.634;18.310;2023-03-19T06:57:07;23.97;;;11.97;;
12385;SDS011;6257;57.634;18.310;2023-03-19T06:59:36;32.13;;;11.67;;
12385;SDS011;6257;57.634;18.310;2023-03-19T07:02:03;27.87;;;10.70;;
12385;SDS011;6257;57.634;18.310;2023-03-19T07:04:30;25.37;;;10.77;;
12385;SDS011;6257;57.634;18.310;2023-03-19T07:06:57;28.00;;;11.43;;
12385;SDS011;6257;57.634;18.310;2023-03-19T07:09:26;27.83;;;10.87;;
12385;SDS011;6257;57.634;18.310;2023-03-19T07:11:53;22.20;;;10.50;;
12385;SDS011;6257;57.634;18.310;2023-03-19T07:14:20;19.03;;;10.03;;
12385;SDS011;6257;57.634;18.310;2023-03-19T07:16:50;18.20;;;9.47;;
12385;SDS011;6257;57.634;18.310;2023-03-19T07:19:17;18.17;;;9.07;;
12385;SDS011;6257;57.634;18.310;2023-03-19T07:21:44;21.30;;;8.50;;
12385;SDS011;6257;57.634;18.310;2023-03-19T07:24:11;14.53;;;6.13;;
12385;SDS011;6257;57.634;18.310;2023-03-19T07:26:38;17.30;;;7.07;;
12385;SDS011;6257;57.634;18.310;2023-03-19T07:29:06;13.70;;;6.60;;
12385;SDS011;6257;57.634;18.310;2023-03-19T07:31:33;12.30;;;6.83;;
12385;SDS011;6257;57.634;18.310;2023-03-19T07:34:02;16.13;;;6.87;;
12385;SDS011;6257;57.634;18.310;2023-03-19T07:36:30;12.10;;;6.80;;
12385;SDS011;6257;57.634;18.310;2023-03-19T07:38:57;12.03;;;6.50;;
12385;SDS011;6257;57.634;18.310;2023-03-19T07:41:24;10.87;;;6.43;;
12385;SDS011;6257;57.634;18.310;2023-03-19T07:43:51;12.20;;;5.73;;
12385;SDS011;6257;57.634;18.310;2023-03-19T07:46:18;10.97;;;6.50;;
12385;SDS011;6257;57.634;18.310;2023-03-19T07:48:45;12.87;;;7.10;;
12385;SDS011;6257;57.634;18.310;2023-03-19T07:51:14;10.60;;;6.27;;
12385;SDS011;6257;57.634;18.310;2023-03-19T07:53:41;10.70;;;6.33;;
12385;SDS011;6257;57.634;18.310;2023-03-19T07:56:08;14.03;;;6.87;;
12385;SDS011;6257;57.634;18.310;2023-03-19T07:58:35;13.07;;;7.07;;
12385;SDS011;6257;57.634;18.310;2023-03-19T08:01:02;10.43;;;6.13;;
12385;SDS011;6257;57.634;18.310;2023-03-19T08:03:30;10.10;;;6.17;;
12385;SDS011;6257;57.634;18.310;2023-03-19T08:05:57;24.80;;;13.97;;
12385;SDS011;6257;57.634;18.310;2023-03-19T08:08:26;27.97;;;14.50;;
12385;SDS011;6257;57.634;18.310;2023-03-19T08:10:53;28.00;;;13.53;;
12385;SDS011;6257;57.634;18.310;2023-03-19T08:13:20;28.13;;;12.20;;
12385;SDS011;6257;57.634;18.310;2023-03-19T08:15:48;46.20;;;12.63;;
12385;SDS011;6257;57.634;18.310;2023-03-19T08:18:17;34.80;;;12.47;;
12385;SDS011;6257;57.634;18.310;2023-03-19T08:20:45;44.27;;;11.80;;
12385;SDS011;6257;57.634;18.310;2023-03-19T08:23:12;38.87;;;13.10;;
12385;SDS011;6257;57.634;18.310;2023-03-19T08:25:41;26.87;;;11.13;;
12385;SDS011;6257;57.634;18.310;2023-03-19T08:28:08;33.13;;;11.10;;
12385;SDS011;6257;57.634;18.310;2023-03-19T08:30:36;25.03;;;10.20;;
12385;SDS011;6257;57.634;18.310;2023-03-19T08:33:04;21.57;;;11.33;;
12385;SDS011;6257;57.634;18.310;2023-03-19T08:35:31;20.73;;;9.97;;
12385;SDS011;6257;57.634;18.310;2023-03-19T08:37:58;26.90;;;11.20;;
12385;SDS011;6257;57.634;18.310;2023-03-19T08:40:25;25.20;;;10.73;;
12385;SDS011;6257;57.634;18.310;2023-03-19T08:42:54;24.30;;;10.60;;
12385;SDS011;6257;57.634;18.310;2023-03-19T08:45:21;21.87;;;9.77;;
12385;SDS011;6257;57.634;18.310;2023-03-19T08:47:48;17.40;;;9.30;;
12385;SDS011;6257;57.634;18.310;2023-03-19T08:50:15;26.57;;;10.33;;
12385;SDS011;6257;57.634;18.310;2023-03-19T08:52:43;33.40;;;9.33;;
12385;SDS011;6257;57.634;18.310;2023-03-19T08:55:10;25.47;;;10.13;;
12385;SDS011;6257;57.634;18.310;2023-03-19T08:57:37;32.43;;;8.53;;
12385;SDS011;6257;57.634;18.310;2023-03-19T09:00:07;39.43;;;9.77;;
12385;SDS011;6257;57.634;18.310;2023-03-19T09:02:34;43.30;;;10.53;;
12385;SDS011;6257;57.634;18.310;2023-03-19T09:05:02;34.77;;;8.50;;
12385;SDS011;6257;57.634;18.310;2023-03-19T09:07:29;29.27;;;9.13;;
12385;SDS011;6257;57.634;18.310;2023-03-19T09:09:56;27.50;;;10.70;;
12385;SDS011;6257;57.634;18.310;2023-03-19T09:12:23;28.00;;;9.90;;
12385;SDS011;6257;57.634;18.310;2023-03-19T09:14:50;27.87;;;8.20;;
12385;SDS011;6257;57.634;18.310;2023-03-19T09:17:19;37.90;;;8.03;;
12385;SDS011;6257;57.634;18.310;2023-03-19T09:19:46;28.60;;;8.27;;
12385;SDS011;6257;57.634;18.310;2023-03-19T09:22:13;37.40;;;9.23;;
12385;SDS011;6257;57.634;18.310;2023-03-19T09:24:40;28.23;;;7.60;;
12385;SDS011;6257;57.634;18.310;2023-03-19T09:27:07;34.60;;;8.70;;
12385;SDS011;6257;57.634;18.310;2023-03-19T09:29:34;29.07;;;8.20;;
12385;SDS011;6257;57.634;18.310;2023-03-19T09:32:01;25.27;;;7.70;;
12385;SDS011;6257;57.634;18.310;2023-03-19T09:34:29;26.07;;;9.40;;
12385;SDS011;6257;57.634;18.310;2023-03-19T09:36:57;22.87;;;7.80;;
12385;SDS011;6257;57.634;18.310;2023-03-19T09:39:24;35.30;;;8.10;;
12385;SDS011;6257;57.634;18.310;2023-03-19T09:41:54;19.40;;;8.20;;
12385;SDS011;6257;57.634;18.310;2023-03-19T09:44:29;17.03;;;8.00;;
12385;SDS011;6257;57.634;18.310;2023-03-19T09:47:00;15.30;;;8.57;;
12385;SDS011;6257;57.634;18.310;2023-03-19T09:49:39;13.97;;;7.63;;
12385;SDS011;6257;57.634;18.310;2023-03-19T09:52:13;18.33;;;8.33;;
12385;SDS011;6257;57.634;18.310;2023-03-19T09:54:50;13.00;;;7.93;;
12385;SDS011;6257;57.634;18.310;2023-03-19T09:57:20;14.43;;;8.23;;
12385;SDS011;6257;57.634;18.310;2023-03-19T09:59:47;14.83;;;8.20;;
12385;SDS011;6257;57.634;18.310;2023-03-19T10:02:23;10.77;;;7.23;;
12385;SDS011;6257;57.634;18.310;2023-03-19T10:05:05;12.93;;;7.03;;
12385;SDS011;6257;57.634;18.310;2023-03-19T10:07:47;10.23;;;6.53;;
12385;SDS011;6257;57.634;18.310;2023-03-19T10:10:44;13.87;;;6.50;;
12385;SDS011;6257;57.634;18.310;2023-03-19T10:13:25;10.17;;;6.53;;
12385;SDS011;6257;57.634;18.310;2023-03-19T10:16:04;8.37;;;5.53;;
12385;SDS011;6257;57.634;18.310;2023-03-19T10:18:46;11.00;;;6.50;;
12385;SDS011;6257;57.634;18.310;2023-03-19T10:21:17;9.07;;;6.13;;
12385;SDS011;6257;57.634;18.310;2023-03-19T10:23:49;9.70;;;7.27;;
12385;SDS011;6257;57.634;18.310;2023-03-19T10:26:20;8.17;;;5.90;;
12385;SDS011;6257;57.634;18.310;2023-03-19T10:28:55;7.47;;;5.60;;
12385;SDS011;6257;57.634;18.310;2023-03-19T10:31:29;8.00;;;5.67;;
12385;SDS011;6257;57.634;18.310;2023-03-19T10:36:59;7.33;;;5.00;;
12385;SDS011;6257;57.634;18.310;2023-03-19T10:39:28;8.07;;;5.40;;
12385;SDS011;6257;57.634;18.310;2023-03-19T10:42:00;7.23;;;5.20;;
12385;SDS011;6257;57.634;18.310;2023-03-19T10:44:44;8.23;;;5.40;;
12385;SDS011;6257;57.634;18.310;2023-03-19T10:47:15;8.13;;;4.97;;
12385;SDS011;6257;57.634;18.310;2023-03-19T10:49:44;9.10;;;4.87;;
12385;SDS011;6257;57.634;18.310;2023-03-19T10:52:18;8.37;;;5.10;;
12385;SDS011;6257;57.634;18.310;2023-03-19T10:54:51;10.43;;;5.20;;
12385;SDS011;6257;57.634;18.310;2023-03-19T10:57:22;12.20;;;6.10;;
12385;SDS011;6257;57.634;18.310;2023-03-19T10:59:51;9.23;;;5.47;;
12385;SDS011;6257;57.634;18.310;2023-03-19T11:02:20;17.07;;;5.63;;
12385;SDS011;6257;57.634;18.310;2023-03-19T11:04:55;12.80;;;5.70;;
12385;SDS011;6257;57.634;18.310;2023-03-19T11:07:34;9.73;;;4.70;;
12385;SDS011;6257;57.634;18.310;2023-03-19T11:10:02;8.67;;;4.73;;
12385;SDS011;6257;57.634;18.310;2023-03-19T11:12:31;6.87;;;4.37;;
12385;SDS011;6257;57.634;18.310;2023-03-19T11:14:59;11.77;;;4.60;;
12385;SDS011;6257;57.634;18.310;2023-03-19T11:17:35;6.20;;;4.03;;
12385;SDS011;6257;57.634;18.310;2023-03-19T11:20:12;11.53;;;5.03;;
12385;SDS011;6257;57.634;18.310;2023-03-19T11:22:49;13.17;;;5.07;;
12385;SDS011;6257;57.634;18.310;2023-03-19T11:25:18;10.70;;;5.17;;
12385;SDS011;6257;57.634;18.310;2023-03-19T11:27:56;17.20;;;5.10;;
12385;SDS011;6257;57.634;18.310;2023-03-19T11:30:25;6.17;;;3.90;;
12385;SDS011;6257;57.634;18.310;2023-03-19T11:33:06;8.10;;;4.13;;
12385;SDS011;6257;57.634;18.310;2023-03-19T11:35:44;11.50;;;4.50;;
12385;SDS011;6257;57.634;18.310;2023-03-19T11:38:19;16.10;;;5.57;;
12385;SDS011;6257;57.634;18.310;2023-03-19T11:40:51;20.63;;;5.83;;
12385;SDS011;6257;57.634;18.310;2023-03-19T11:46:13;8.90;;;4.10;;
12385;SDS011;6257;57.634;18.310;2023-03-19T11:51:45;10.03;;;4.50;;
12385;SDS011;6257;57.634;18.310;2023-03-19T11:54:20;11.80;;;4.77;;
12385;SDS011;6257;57.634;18.310;2023-03-19T11:56:54;7.23;;;4.20;;
12385;SDS011;6257;57.634;18.310;2023-03-19T11:59:31;14.13;;;4.93;;
12385;SDS011;6257;57.634;18.310;2023-03-19T12:02:35;9.67;;;4.10;;
12385;SDS011;6257;57.634;18.310;2023-03-19T12:05:17;14.70;;;5.20;;
12385;SDS011;6257;57.634;18.310;2023-03-19T12:07:50;8.33;;;4.60;;
12385;SDS011;6257;57.634;18.310;2023-03-19T12:13:33;7.00;;;4.70;;
12385;SDS011;6257;57.634;18.310;2023-03-19T12:16:10;32.83;;;7.87;;
12385;SDS011;6257;57.634;18.310;2023-03-19T12:21:38;15.43;;;5.37;;
12385;SDS011;6257;57.634;18.310;2023-03-19T12:24:16;6.40;;;4.20;;
12385;SDS011;6257;57.634;18.310;2023-03-19T12:26:56;7.50;;;4.90;;
12385;SDS011;6257;57.634;18.310;2023-03-19T12:29:40;19.30;;;4.90;;
12385;SDS011;6257;57.634;18.310;2023-03-19T12:32:15;11.80;;;4.27;;
12385;SDS011;6257;57.634;18.310;2023-03-19T12:34:51;11.03;;;4.37;;
12385;SDS011;6257;57.634;18.310;2023-03-19T12:37:25;8.27;;;4.07;;
12385;SDS011;6257;57.634;18.310;2023-03-19T12:40:04;13.93;;;5.50;;
12385;SDS011;6257;57.634;18.310;2023-03-19T12:42:41;9.97;;;3.47;;
12385;SDS011;6257;57.634;18.310;2023-03-19T12:45:13;34.53;;;5.80;;
12385;SDS011;6257;57.634;18.310;2023-03-19T12:47:53;17.87;;;6.33;;
12385;SDS011;6257;57.634;18.310;2023-03-19T12:50:25;20.70;;;5.87;;
12385;SDS011;6257;57.634;18.310;2023-03-19T12:52:56;12.83;;;5.77;;
12385;SDS011;6257;57.634;18.310;2023-03-19T12:55:26;22.10;;;6.50;;
12385;SDS011;6257;57.634;18.310;2023-03-19T12:58:03;11.67;;;5.43;;
12385;SDS011;6257;57.634;18.310;2023-03-19T13:00:38;21.80;;;6.00;;
12385;SDS011;6257;57.634;18.310;2023-03-19T13:03:10;17.50;;;5.70;;
12385;SDS011;6257;57.634;18.310;2023-03-19T13:05:43;12.37;;;5.03;;
12385;SDS011;6257;57.634;18.310;2023-03-19T13:08:13;13.70;;;5.73;;
12385;SDS011;6257;57.634;18.310;2023-03-19T13:10:45;25.17;;;5.13;;
12385;SDS011;6257;57.634;18.310;2023-03-19T13:13:17;14.17;;;5.27;;
12385;SDS011;6257;57.634;18.310;2023-03-19T13:16:02;17.80;;;5.60;;
12385;SDS011;6257;57.634;18.310;2023-03-19T13:18:39;49.20;;;7.57;;
12385;SDS011;6257;57.634;18.310;2023-03-19T13:21:16;49.97;;;7.13;;
12385;SDS011;6257;57.634;18.310;2023-03-19T13:23:49;14.20;;;4.47;;
12385;SDS011;6257;57.634;18.310;2023-03-19T13:26:25;10.43;;;4.27;;
12385;SDS011;6257;57.634;18.310;2023-03-19T13:28:58;12.67;;;4.83;;
12385;SDS011;6257;57.634;18.310;2023-03-19T13:31:27;12.63;;;4.73;;
12385;SDS011;6257;57.634;18.310;2023-03-19T13:34:00;17.37;;;5.27;;
12385;SDS011;6257;57.634;18.310;2023-03-19T13:36:29;23.03;;;6.13;;
12385;SDS011;6257;57.634;18.310;2023-03-19T13:39:00;9.87;;;5.20;;
12385;SDS011;6257;57.634;18.310;2023-03-19T13:41:49;23.97;;;5.33;;
12385;SDS011;6257;57.634;18.310;2023-03-19T13:44:37;7.30;;;4.20;;
12385;SDS011;6257;57.634;18.310;2023-03-19T13:53:10;8.63;;;3.80;;
12385;SDS011;6257;57.634;18.310;2023-03-19T13:55:58;12.47;;;4.17;;
12385;SDS011;6257;57.634;18.310;2023-03-19T13:58:28;22.80;;;6.03;;
12385;SDS011;6257;57.634;18.310;2023-03-19T14:01:39;9.73;;;3.60;;
12385;SDS011;6257;57.634;18.310;2023-03-19T14:04:16;16.57;;;4.97;;
12385;SDS011;6257;57.634;18.310;2023-03-19T14:06:46;22.77;;;4.00;;
12385;SDS011;6257;57.634;18.310;2023-03-19T14:09:29;12.13;;;4.10;;
12385;SDS011;6257;57.634;18.310;2023-03-19T14:14:57;30.33;;;5.80;;
12385;SDS011;6257;57.634;18.310;2023-03-19T14:17:29;46.97;;;7.03;;
12385;SDS011;6257;57.634;18.310;2023-03-19T14:20:00;13.87;;;3.77;;
12385;SDS011;6257;57.634;18.310;2023-03-19T14:22:52;62.13;;;6.00;;
12385;SDS011;6257;57.634;18.310;2023-03-19T14:25:22;15.27;;;3.37;;
12385;SDS011;6257;57.634;18.310;2023-03-19T14:27:50;10.77;;;3.37;;
12385;SDS011;6257;57.634;18.310;2023-03-19T14:30:28;10.47;;;3.80;;
12385;SDS011;6257;57.634;18.310;2023-03-19T14:33:01;14.70;;;4.20;;
12385;SDS011;6257;57.634;18.310;2023-03-19T14:35:32;17.17;;;4.37;;
12385;SDS011;6257;57.634;18.310;2023-03-19T14:38:08;29.03;;;4.90;;
12385;SDS011;6257;57.634;18.310;2023-03-19T14:40:40;17.97;;;5.10;;
12385;SDS011;6257;57.634;18.310;2023-03-19T14:43:13;22.00;;;5.50;;
12385;SDS011;6257;57.634;18.310;2023-03-19T14:45:48;23.03;;;4.07;;
12385;SDS011;6257;57.634;18.310;2023-03-19T14:48:32;26.80;;;4.20;;
12385;SDS011;6257;57.634;18.310;2023-03-19T14:51:29;23.80;;;5.53;;
12385;SDS011;6257;57.634;18.310;2023-03-19T14:54:22;35.63;;;5.77;;
12385;SDS011;6257;57.634;18.310;2023-03-19T14:56:55;20.77;;;4.87;;
12385;SDS011;6257;57.634;18.310;2023-03-19T14:59:22;38.77;;;5.60;;
12385;SDS011;6257;57.634;18.310;2023-03-19T15:01:50;15.23;;;3.50;;
12385;SDS011;6257;57.634;18.310;2023-03-19T15:04:21;24.07;;;4.23;;